sensor_id;sensor_type;location;lat;lon;timestamp;P1;durP1;ratioP1;P2;durP2;ratioP2
43628;SDS011;56545;48.224;11.678;2022-12-29T00:02:19;2.53;;;1.23;;
43628;SDS011;56545;48.224;11.678;2022-12-29T00:04:45;3.63;;;1.33;;
43628;SDS011;56545;48.224;11.678;2022-12-29T00:07:11;2.80;;;1.10;;
43628;SDS011;56545;48.224;11.678;2022-12-29T00:09:37;5.00;;;1.20;;
43628;SDS011;56545;48.224;11.678;2022-12-29T00:12:03;3.08;;;1.23;;
43628;SDS011;56545;48.224;11.678;2022-12-29T00:14:29;2.80;;;1.10;;
43628;SDS011;56545;48.224;11.678;2022-12-29T00:17:14;2.72;;;1.08;;
43628;SDS011;56545;48.224;11.678;2022-12-29T00:19:40;3.17;;;1.20;;
43628;SDS011;56545;48.224;11.678;2022-12-29T00:22:25;3.60;;;1.27;;
43628;SDS011;56545;48.224;11.678;2022-12-29T00:25:10;2.22;;;1.00;;
43628;SDS011;56545;48.224;11.678;2022-12-29T00:27:55;2.50;;;1.15;;
43628;SDS011;56545;48.224;11.678;2022-12-29T00:30:40;3.80;;;1.30;;
43628;SDS011;56545;48.224;11.678;2022-12-29T00:33:26;2.95;;;1.10;;
43628;SDS011;56545;48.224;11.678;2022-12-29T00:36:27;3.28;;;1.15;;
43628;SDS011;56545;48.224;11.678;2022-12-29T00:39:03;2.45;;;0.90;;
43628;SDS011;56545;48.224;11.678;2022-12-29T00:41:50;2.63;;;1.00;;
43628;SDS011;56545;48.224;11.678;2022-12-29T00:44:35;3.30;;;0.90;;
43628;SDS011;56545;48.224;11.678;2022-12-29T00:47:01;1.95;;;0.90;;
43628;SDS011;56545;48.224;11.678;2022-12-29T00:49:29;2.13;;;0.90;;
43628;SDS011;56545;48.224;11.678;2022-12-29T00:51:55;2.05;;;0.90;;
43628;SDS011;56545;48.224;11.678;2022-12-29T00:54:30;2.50;;;1.00;;
43628;SDS011;56545;48.224;11.678;2022-12-29T00:56:57;1.88;;;0.90;;
43628;SDS011;56545;48.224;11.678;2022-12-29T00:59:23;1.88;;;0.80;;
43628;SDS011;56545;48.224;11.678;2022-12-29T01:01:50;2.60;;;1.00;;
43628;SDS011;56545;48.224;11.678;2022-12-29T01:04:17;4.22;;;1.00;;
43628;SDS011;56545;48.224;11.678;2022-12-29T01:06:45;2.60;;;0.80;;
43628;SDS011;56545;48.224;11.678;2022-12-29T01:09:11;2.47;;;0.70;;
43628;SDS011;56545;48.224;11.678;2022-12-29T01:11:55;2.22;;;0.93;;
43628;SDS011;56545;48.224;11.678;2022-12-29T01:14:22;2.30;;;0.80;;
43628;SDS011;56545;48.224;11.678;2022-12-29T01:16:48;2.03;;;0.82;;
43628;SDS011;56545;48.224;11.678;2022-12-29T01:19:15;2.17;;;0.77;;
43628;SDS011;56545;48.224;11.678;2022-12-29T01:21:41;4.13;;;1.10;;
43628;SDS011;56545;48.224;11.678;2022-12-29T01:24:07;3.00;;;0.90;;
43628;SDS011;56545;48.224;11.678;2022-12-29T01:26:33;2.25;;;0.90;;
43628;SDS011;56545;48.224;11.678;2022-12-29T01:28:59;1.15;;;0.70;;
43628;SDS011;56545;48.224;11.678;2022-12-29T01:31:25;2.58;;;0.85;;
43628;SDS011;56545;48.224;11.678;2022-12-29T01:33:50;3.05;;;1.10;;
43628;SDS011;56545;48.224;11.678;2022-12-29T01:36:17;1.23;;;0.73;;
43628;SDS011;56545;48.224;11.678;2022-12-29T01:38:44;2.00;;;0.82;;
43628;SDS011;56545;48.224;11.678;2022-12-29T01:41:10;2.67;;;0.80;;
43628;SDS011;56545;48.224;11.678;2022-12-29T01:43:45;3.88;;;1.10;;
43628;SDS011;56545;48.224;11.678;2022-12-29T01:46:25;3.17;;;0.90;;
43628;SDS011;56545;48.224;11.678;2022-12-29T01:54:18;2.13;;;0.82;;
43628;SDS011;56545;48.224;11.678;2022-12-29T01:56:44;1.98;;;0.80;;
43628;SDS011;56545;48.224;11.678;2022-12-29T01:59:12;2.85;;;1.02;;
43628;SDS011;56545;48.224;11.678;2022-12-29T02:01:43;2.50;;;0.93;;
43628;SDS011;56545;48.224;11.678;2022-12-29T02:04:09;1.38;;;0.70;;
43628;SDS011;56545;48.224;11.678;2022-12-29T02:06:39;2.63;;;0.90;;
43628;SDS011;56545;48.224;11.678;2022-12-29T02:09:10;2.25;;;0.95;;
43628;SDS011;56545;48.224;11.678;2022-12-29T02:11:36;2.67;;;0.90;;
43628;SDS011;56545;48.224;11.678;2022-12-29T02:14:07;1.85;;;0.85;;
43628;SDS011;56545;48.224;11.678;2022-12-29T02:29:50;2.22;;;0.80;;
43628;SDS011;56545;48.224;11.678;2022-12-29T02:32:38;2.20;;;0.80;;
43628;SDS011;56545;48.224;11.678;2022-12-29T02:35:12;1.85;;;0.80;;
43628;SDS011;56545;48.224;11.678;2022-12-29T02:38:33;1.52;;;0.57;;
43628;SDS011;56545;48.224;11.678;2022-12-29T02:40:55;2.22;;;0.90;;
43628;SDS011;56545;48.224;11.678;2022-12-29T02:43:44;2.72;;;0.82;;
43628;SDS011;56545;48.224;11.678;2022-12-29T02:46:18;2.53;;;0.90;;
43628;SDS011;56545;48.224;11.678;2022-12-29T02:48:54;1.50;;;0.80;;
43628;SDS011;56545;48.224;11.678;2022-12-29T02:51:45;1.63;;;0.60;;
43628;SDS011;56545;48.224;11.678;2022-12-29T02:54:18;1.33;;;0.60;;
43628;SDS011;56545;48.224;11.678;2022-12-29T02:57:04;1.75;;;0.70;;
43628;SDS011;56545;48.224;11.678;2022-12-29T02:59:35;1.48;;;0.70;;
43628;SDS011;56545;48.224;11.678;2022-12-29T03:02:11;1.35;;;0.60;;
43628;SDS011;56545;48.224;11.678;2022-12-29T03:10:35;1.70;;;0.70;;
43628;SDS011;56545;48.224;11.678;2022-12-29T03:13:21;2.75;;;0.90;;
43628;SDS011;56545;48.224;11.678;2022-12-29T03:19:09;2.38;;;0.80;;
43628;SDS011;56545;48.224;11.678;2022-12-29T03:21:48;1.73;;;0.65;;
43628;SDS011;56545;48.224;11.678;2022-12-29T03:24:46;1.75;;;0.60;;
43628;SDS011;56545;48.224;11.678;2022-12-29T03:27:16;1.48;;;0.65;;
43628;SDS011;56545;48.224;11.678;2022-12-29T03:29:47;1.25;;;0.55;;
43628;SDS011;56545;48.224;11.678;2022-12-29T03:32:23;1.42;;;0.70;;
43628;SDS011;56545;48.224;11.678;2022-12-29T03:34:52;1.10;;;0.65;;
43628;SDS011;56545;48.224;11.678;2022-12-29T03:37:23;0.85;;;0.60;;
43628;SDS011;56545;48.224;11.678;2022-12-29T03:39:55;1.33;;;0.52;;
43628;SDS011;56545;48.224;11.678;2022-12-29T03:42:23;1.38;;;0.50;;
43628;SDS011;56545;48.224;11.678;2022-12-29T03:44:55;1.27;;;0.60;;
43628;SDS011;56545;48.224;11.678;2022-12-29T03:47:22;1.60;;;0.68;;
43628;SDS011;56545;48.224;11.678;2022-12-29T03:49:49;2.70;;;0.90;;
43628;SDS011;56545;48.224;11.678;2022-12-29T03:52:16;1.08;;;0.60;;
43628;SDS011;56545;48.224;11.678;2022-12-29T03:54:43;1.55;;;0.60;;
43628;SDS011;56545;48.224;11.678;2022-12-29T03:57:10;1.63;;;0.70;;
43628;SDS011;56545;48.224;11.678;2022-12-29T03:59:36;1.67;;;0.50;;
43628;SDS011;56545;48.224;11.678;2022-12-29T04:02:02;0.47;;;0.32;;
43628;SDS011;56545;48.224;11.678;2022-12-29T04:04:27;1.13;;;0.60;;
43628;SDS011;56545;48.224;11.678;2022-12-29T04:06:53;1.00;;;0.50;;
43628;SDS011;56545;48.224;11.678;2022-12-29T04:09:19;1.23;;;0.52;;
43628;SDS011;56545;48.224;11.678;2022-12-29T04:11:45;0.60;;;0.50;;
43628;SDS011;56545;48.224;11.678;2022-12-29T04:14:11;1.40;;;0.30;;
43628;SDS011;56545;48.224;11.678;2022-12-29T04:16:37;1.05;;;0.60;;
43628;SDS011;56545;48.224;11.678;2022-12-29T04:19:04;1.33;;;0.60;;
43628;SDS011;56545;48.224;11.678;2022-12-29T04:21:30;0.90;;;0.43;;
43628;SDS011;56545;48.224;11.678;2022-12-29T04:23:56;0.98;;;0.52;;
43628;SDS011;56545;48.224;11.678;2022-12-29T04:26:22;1.65;;;0.60;;
43628;SDS011;56545;48.224;11.678;2022-12-29T04:28:48;1.20;;;0.52;;
43628;SDS011;56545;48.224;11.678;2022-12-29T04:31:14;1.38;;;0.60;;
43628;SDS011;56545;48.224;11.678;2022-12-29T04:33:40;2.22;;;0.60;;
43628;SDS011;56545;48.224;11.678;2022-12-29T04:36:06;2.30;;;0.80;;
43628;SDS011;56545;48.224;11.678;2022-12-29T04:38:32;1.60;;;0.68;;
43628;SDS011;56545;48.224;11.678;2022-12-29T04:40:59;1.92;;;0.80;;
43628;SDS011;56545;48.224;11.678;2022-12-29T04:43:25;1.75;;;0.80;;
43628;SDS011;56545;48.224;11.678;2022-12-29T04:45:51;1.42;;;0.70;;
43628;SDS011;56545;48.224;11.678;2022-12-29T04:48:17;1.83;;;0.70;;
43628;SDS011;56545;48.224;11.678;2022-12-29T04:50:43;2.88;;;0.85;;
43628;SDS011;56545;48.224;11.678;2022-12-29T04:53:11;1.35;;;0.65;;
43628;SDS011;56545;48.224;11.678;2022-12-29T04:55:37;2.45;;;0.82;;
43628;SDS011;56545;48.224;11.678;2022-12-29T04:58:03;2.72;;;0.80;;
43628;SDS011;56545;48.224;11.678;2022-12-29T05:00:29;1.75;;;0.70;;
43628;SDS011;56545;48.224;11.678;2022-12-29T05:02:55;1.52;;;0.80;;
43628;SDS011;56545;48.224;11.678;2022-12-29T05:05:21;1.60;;;0.70;;
43628;SDS011;56545;48.224;11.678;2022-12-29T05:07:47;1.67;;;0.70;;
43628;SDS011;56545;48.224;11.678;2022-12-29T05:10:13;2.03;;;0.80;;
43628;SDS011;56545;48.224;11.678;2022-12-29T05:12:39;1.48;;;0.70;;
43628;SDS011;56545;48.224;11.678;2022-12-29T05:15:06;1.63;;;0.70;;
43628;SDS011;56545;48.224;11.678;2022-12-29T05:17:33;1.48;;;0.70;;
43628;SDS011;56545;48.224;11.678;2022-12-29T05:19:59;1.45;;;0.57;;
43628;SDS011;56545;48.224;11.678;2022-12-29T05:22:25;2.72;;;0.75;;
43628;SDS011;56545;48.224;11.678;2022-12-29T05:24:51;1.40;;;0.60;;
43628;SDS011;56545;48.224;11.678;2022-12-29T05:27:16;1.90;;;0.80;;
43628;SDS011;56545;48.224;11.678;2022-12-29T05:29:42;1.60;;;0.80;;
43628;SDS011;56545;48.224;11.678;2022-12-29T05:32:08;2.25;;;0.65;;
43628;SDS011;56545;48.224;11.678;2022-12-29T05:34:34;2.00;;;0.70;;
43628;SDS011;56545;48.224;11.678;2022-12-29T05:37:00;2.53;;;0.82;;
43628;SDS011;56545;48.224;11.678;2022-12-29T05:39:27;1.67;;;0.70;;
43628;SDS011;56545;48.224;11.678;2022-12-29T05:41:53;1.08;;;0.60;;
43628;SDS011;56545;48.224;11.678;2022-12-29T05:44:19;2.95;;;0.90;;
43628;SDS011;56545;48.224;11.678;2022-12-29T05:46:45;1.40;;;0.68;;
43628;SDS011;56545;48.224;11.678;2022-12-29T05:49:11;2.47;;;0.70;;
43628;SDS011;56545;48.224;11.678;2022-12-29T05:51:37;2.80;;;0.70;;
43628;SDS011;56545;48.224;11.678;2022-12-29T05:54:03;1.77;;;0.70;;
43628;SDS011;56545;48.224;11.678;2022-12-29T05:56:29;1.38;;;0.70;;
43628;SDS011;56545;48.224;11.678;2022-12-29T05:58:55;2.35;;;0.90;;
43628;SDS011;56545;48.224;11.678;2022-12-29T06:01:21;2.00;;;0.90;;
43628;SDS011;56545;48.224;11.678;2022-12-29T06:03:47;2.20;;;0.60;;
43628;SDS011;56545;48.224;11.678;2022-12-29T06:06:13;1.00;;;0.57;;
43628;SDS011;56545;48.224;11.678;2022-12-29T06:08:39;2.35;;;0.75;;
43628;SDS011;56545;48.224;11.678;2022-12-29T06:11:05;2.30;;;0.77;;
43628;SDS011;56545;48.224;11.678;2022-12-29T06:13:31;2.85;;;0.80;;
43628;SDS011;56545;48.224;11.678;2022-12-29T06:15:57;1.10;;;0.57;;
43628;SDS011;56545;48.224;11.678;2022-12-29T06:18:23;1.73;;;0.70;;
43628;SDS011;56545;48.224;11.678;2022-12-29T06:20:49;1.77;;;0.70;;
43628;SDS011;56545;48.224;11.678;2022-12-29T06:23:15;2.42;;;0.82;;
43628;SDS011;56545;48.224;11.678;2022-12-29T06:25:41;2.47;;;0.70;;
43628;SDS011;56545;48.224;11.678;2022-12-29T06:28:07;1.73;;;0.70;;
43628;SDS011;56545;48.224;11.678;2022-12-29T06:30:35;1.52;;;0.70;;
43628;SDS011;56545;48.224;11.678;2022-12-29T06:33:01;2.13;;;0.70;;
43628;SDS011;56545;48.224;11.678;2022-12-29T06:35:27;2.42;;;0.88;;
43628;SDS011;56545;48.224;11.678;2022-12-29T06:37:53;1.20;;;0.55;;
43628;SDS011;56545;48.224;11.678;2022-12-29T06:40:19;1.67;;;0.65;;
43628;SDS011;56545;48.224;11.678;2022-12-29T06:42:46;3.53;;;0.85;;
43628;SDS011;56545;48.224;11.678;2022-12-29T06:45:12;2.67;;;0.90;;
43628;SDS011;56545;48.224;11.678;2022-12-29T06:47:38;2.00;;;0.90;;
43628;SDS011;56545;48.224;11.678;2022-12-29T06:50:04;1.52;;;0.80;;
43628;SDS011;56545;48.224;11.678;2022-12-29T06:52:30;3.10;;;1.05;;
43628;SDS011;56545;48.224;11.678;2022-12-29T06:54:56;2.78;;;1.10;;
43628;SDS011;56545;48.224;11.678;2022-12-29T06:57:22;2.20;;;0.90;;
43628;SDS011;56545;48.224;11.678;2022-12-29T06:59:48;2.00;;;0.85;;
43628;SDS011;56545;48.224;11.678;2022-12-29T07:02:14;2.83;;;0.80;;
43628;SDS011;56545;48.224;11.678;2022-12-29T07:04:41;1.67;;;0.80;;
43628;SDS011;56545;48.224;11.678;2022-12-29T07:07:07;2.17;;;0.70;;
43628;SDS011;56545;48.224;11.678;2022-12-29T07:09:33;5.63;;;0.85;;
43628;SDS011;56545;48.224;11.678;2022-12-29T07:11:59;2.22;;;0.90;;
43628;SDS011;56545;48.224;11.678;2022-12-29T07:14:25;2.35;;;0.90;;
43628;SDS011;56545;48.224;11.678;2022-12-29T07:16:51;3.05;;;1.00;;
43628;SDS011;56545;48.224;11.678;2022-12-29T07:19:17;3.35;;;1.00;;
43628;SDS011;56545;48.224;11.678;2022-12-29T07:21:42;2.45;;;0.88;;
43628;SDS011;56545;48.224;11.678;2022-12-29T07:24:08;1.85;;;0.82;;
43628;SDS011;56545;48.224;11.678;2022-12-29T07:26:34;3.22;;;0.88;;
43628;SDS011;56545;48.224;11.678;2022-12-29T07:29:01;1.45;;;0.73;;
43628;SDS011;56545;48.224;11.678;2022-12-29T07:31:30;2.25;;;0.90;;
43628;SDS011;56545;48.224;11.678;2022-12-29T07:33:56;1.80;;;0.88;;
43628;SDS011;56545;48.224;11.678;2022-12-29T07:36:23;2.08;;;0.82;;
43628;SDS011;56545;48.224;11.678;2022-12-29T07:38:48;2.72;;;1.08;;
43628;SDS011;56545;48.224;11.678;2022-12-29T07:41:14;2.30;;;0.85;;
43628;SDS011;56545;48.224;11.678;2022-12-29T07:43:41;2.13;;;0.95;;
43628;SDS011;56545;48.224;11.678;2022-12-29T07:46:06;3.10;;;1.02;;
43628;SDS011;56545;48.224;11.678;2022-12-29T07:48:34;2.72;;;0.90;;
43628;SDS011;56545;48.224;11.678;2022-12-29T07:51:00;2.30;;;1.00;;
43628;SDS011;56545;48.224;11.678;2022-12-29T07:53:26;4.63;;;1.40;;
43628;SDS011;56545;48.224;11.678;2022-12-29T07:55:52;3.42;;;1.00;;
43628;SDS011;56545;48.224;11.678;2022-12-29T07:58:18;3.75;;;1.00;;
43628;SDS011;56545;48.224;11.678;2022-12-29T08:00:44;3.15;;;1.00;;
43628;SDS011;56545;48.224;11.678;2022-12-29T08:03:10;3.70;;;1.52;;
43628;SDS011;56545;48.224;11.678;2022-12-29T08:05:36;5.07;;;2.28;;
43628;SDS011;56545;48.224;11.678;2022-12-29T08:08:02;4.18;;;1.30;;
43628;SDS011;56545;48.224;11.678;2022-12-29T08:10:28;2.67;;;1.10;;
43628;SDS011;56545;48.224;11.678;2022-12-29T08:12:54;2.65;;;1.00;;
43628;SDS011;56545;48.224;11.678;2022-12-29T08:15:19;2.00;;;1.05;;
43628;SDS011;56545;48.224;11.678;2022-12-29T08:17:45;2.67;;;0.90;;
43628;SDS011;56545;48.224;11.678;2022-12-29T08:20:11;2.45;;;1.02;;
43628;SDS011;56545;48.224;11.678;2022-12-29T08:22:37;4.38;;;1.25;;
43628;SDS011;56545;48.224;11.678;2022-12-29T08:25:03;1.90;;;0.77;;
43628;SDS011;56545;48.224;11.678;2022-12-29T08:27:29;2.60;;;0.80;;
43628;SDS011;56545;48.224;11.678;2022-12-29T08:29:55;2.08;;;0.75;;
43628;SDS011;56545;48.224;11.678;2022-12-29T08:32:21;2.97;;;0.88;;
43628;SDS011;56545;48.224;11.678;2022-12-29T08:34:47;1.58;;;0.80;;
43628;SDS011;56545;48.224;11.678;2022-12-29T08:37:13;1.80;;;0.88;;
43628;SDS011;56545;48.224;11.678;2022-12-29T08:39:39;2.20;;;1.00;;
43628;SDS011;56545;48.224;11.678;2022-12-29T08:42:05;4.93;;;1.00;;
43628;SDS011;56545;48.224;11.678;2022-12-29T08:44:31;2.70;;;0.93;;
43628;SDS011;56545;48.224;11.678;2022-12-29T08:46:57;2.00;;;0.88;;
43628;SDS011;56545;48.224;11.678;2022-12-29T08:49:23;1.92;;;1.00;;
43628;SDS011;56545;48.224;11.678;2022-12-29T08:51:48;2.97;;;1.20;;
43628;SDS011;56545;48.224;11.678;2022-12-29T08:54:14;3.60;;;1.27;;
43628;SDS011;56545;48.224;11.678;2022-12-29T08:56:40;5.57;;;1.50;;
43628;SDS011;56545;48.224;11.678;2022-12-29T08:59:06;3.17;;;1.05;;
43628;SDS011;56545;48.224;11.678;2022-12-29T09:01:32;6.28;;;2.05;;
43628;SDS011;56545;48.224;11.678;2022-12-29T09:04:01;2.88;;;1.23;;
43628;SDS011;56545;48.224;11.678;2022-12-29T09:06:27;3.42;;;1.45;;
43628;SDS011;56545;48.224;11.678;2022-12-29T09:08:53;4.47;;;1.80;;
43628;SDS011;56545;48.224;11.678;2022-12-29T09:11:21;4.10;;;1.77;;
43628;SDS011;56545;48.224;11.678;2022-12-29T09:13:48;5.70;;;1.30;;
43628;SDS011;56545;48.224;11.678;2022-12-29T09:16:15;3.85;;;1.30;;
43628;SDS011;56545;48.224;11.678;2022-12-29T09:18:42;3.03;;;1.27;;
43628;SDS011;56545;48.224;11.678;2022-12-29T09:21:09;3.88;;;1.10;;
43628;SDS011;56545;48.224;11.678;2022-12-29T09:23:36;4.38;;;1.25;;
43628;SDS011;56545;48.224;11.678;2022-12-29T09:26:02;3.30;;;1.30;;
43628;SDS011;56545;48.224;11.678;2022-12-29T09:28:29;3.22;;;1.20;;
43628;SDS011;56545;48.224;11.678;2022-12-29T09:30:55;2.55;;;1.10;;
43628;SDS011;56545;48.224;11.678;2022-12-29T09:33:22;3.15;;;1.10;;
43628;SDS011;56545;48.224;11.678;2022-12-29T09:35:52;3.35;;;1.10;;
43628;SDS011;56545;48.224;11.678;2022-12-29T09:38:20;3.53;;;1.37;;
43628;SDS011;56545;48.224;11.678;2022-12-29T09:40:49;3.03;;;1.33;;
43628;SDS011;56545;48.224;11.678;2022-12-29T09:48:45;4.78;;;1.40;;
43628;SDS011;56545;48.224;11.678;2022-12-29T09:51:16;4.25;;;1.20;;
43628;SDS011;56545;48.224;11.678;2022-12-29T09:53:50;2.80;;;1.10;;
43628;SDS011;56545;48.224;11.678;2022-12-29T09:56:21;3.08;;;1.13;;
43628;SDS011;56545;48.224;11.678;2022-12-29T09:58:51;3.28;;;1.23;;
43628;SDS011;56545;48.224;11.678;2022-12-29T10:01:41;2.60;;;1.05;;
43628;SDS011;56545;48.224;11.678;2022-12-29T10:04:22;2.75;;;1.23;;
43628;SDS011;56545;48.224;11.678;2022-12-29T10:07:03;4.72;;;1.40;;
43628;SDS011;56545;48.224;11.678;2022-12-29T10:12:52;2.72;;;1.30;;
43628;SDS011;56545;48.224;11.678;2022-12-29T10:21:05;3.20;;;1.08;;
43628;SDS011;56545;48.224;11.678;2022-12-29T10:23:40;3.00;;;1.10;;
43628;SDS011;56545;48.224;11.678;2022-12-29T10:26:17;4.03;;;1.02;;
43628;SDS011;56545;48.224;11.678;2022-12-29T10:28:53;2.80;;;0.98;;
43628;SDS011;56545;48.224;11.678;2022-12-29T10:31:24;3.92;;;0.93;;
43628;SDS011;56545;48.224;11.678;2022-12-29T10:33:57;3.58;;;1.30;;
43628;SDS011;56545;48.224;11.678;2022-12-29T10:36:41;2.78;;;1.23;;
43628;SDS011;56545;48.224;11.678;2022-12-29T10:39:14;5.95;;;2.38;;
43628;SDS011;56545;48.224;11.678;2022-12-29T10:41:48;3.70;;;1.70;;
43628;SDS011;56545;48.224;11.678;2022-12-29T10:44:21;3.35;;;1.35;;
43628;SDS011;56545;48.224;11.678;2022-12-29T10:47:02;4.30;;;1.50;;
43628;SDS011;56545;48.224;11.678;2022-12-29T10:49:32;2.88;;;1.30;;
43628;SDS011;56545;48.224;11.678;2022-12-29T10:52:05;2.20;;;1.20;;
43628;SDS011;56545;48.224;11.678;2022-12-29T10:54:35;2.38;;;1.15;;
43628;SDS011;56545;48.224;11.678;2022-12-29T10:57:33;4.65;;;1.40;;
43628;SDS011;56545;48.224;11.678;2022-12-29T11:00:11;3.75;;;1.30;;
43628;SDS011;56545;48.224;11.678;2022-12-29T11:02:48;3.53;;;1.20;;
43628;SDS011;56545;48.224;11.678;2022-12-29T11:05:35;3.83;;;1.20;;
43628;SDS011;56545;48.224;11.678;2022-12-29T11:08:11;2.63;;;0.90;;
43628;SDS011;56545;48.224;11.678;2022-12-29T11:10:43;2.88;;;1.10;;
43628;SDS011;56545;48.224;11.678;2022-12-29T11:13:13;1.55;;;0.90;;
43628;SDS011;56545;48.224;11.678;2022-12-29T11:15:44;6.10;;;3.20;;
43628;SDS011;56545;48.224;11.678;2022-12-29T11:18:19;7.25;;;3.22;;
43628;SDS011;56545;48.224;11.678;2022-12-29T11:20:59;2.72;;;1.33;;
43628;SDS011;56545;48.224;11.678;2022-12-29T11:23:37;3.92;;;1.20;;
43628;SDS011;56545;48.224;11.678;2022-12-29T11:26:06;5.40;;;1.70;;
43628;SDS011;56545;48.224;11.678;2022-12-29T11:28:38;5.55;;;1.25;;
43628;SDS011;56545;48.224;11.678;2022-12-29T11:31:06;3.20;;;1.27;;
43628;SDS011;56545;48.224;11.678;2022-12-29T11:33:36;4.90;;;1.08;;
43628;SDS011;56545;48.224;11.678;2022-12-29T11:38:37;2.35;;;1.10;;
43628;SDS011;56545;48.224;11.678;2022-12-29T11:43:38;1.63;;;1.00;;
43628;SDS011;56545;48.224;11.678;2022-12-29T11:46:08;3.05;;;1.00;;
43628;SDS011;56545;48.224;11.678;2022-12-29T11:48:42;2.28;;;1.00;;
43628;SDS011;56545;48.224;11.678;2022-12-29T11:51:09;2.25;;;1.00;;
43628;SDS011;56545;48.224;11.678;2022-12-29T11:53:42;1.48;;;0.70;;
43628;SDS011;56545;48.224;11.678;2022-12-29T11:56:13;2.40;;;0.80;;
43628;SDS011;56545;48.224;11.678;2022-12-29T11:58:41;2.38;;;1.10;;
43628;SDS011;56545;48.224;11.678;2022-12-29T12:01:15;2.60;;;1.20;;
43628;SDS011;56545;48.224;11.678;2022-12-29T12:06:27;4.85;;;2.33;;
43628;SDS011;56545;48.224;11.678;2022-12-29T12:08:54;2.35;;;1.00;;
43628;SDS011;56545;48.224;11.678;2022-12-29T12:11:51;2.22;;;1.10;;
43628;SDS011;56545;48.224;11.678;2022-12-29T12:14:20;2.63;;;1.08;;
43628;SDS011;56545;48.224;11.678;2022-12-29T12:16:51;3.03;;;1.10;;
43628;SDS011;56545;48.224;11.678;2022-12-29T12:22:14;3.92;;;1.25;;
43628;SDS011;56545;48.224;11.678;2022-12-29T12:24:54;1.77;;;0.93;;
43628;SDS011;56545;48.224;11.678;2022-12-29T12:27:26;4.55;;;2.10;;
43628;SDS011;56545;48.224;11.678;2022-12-29T12:30:09;3.88;;;2.05;;
43628;SDS011;56545;48.224;11.678;2022-12-29T12:32:48;1.80;;;0.80;;
43628;SDS011;56545;48.224;11.678;2022-12-29T12:35:41;2.45;;;1.10;;
43628;SDS011;56545;48.224;11.678;2022-12-29T12:38:16;3.40;;;1.73;;
43628;SDS011;56545;48.224;11.678;2022-12-29T12:49:00;4.18;;;1.30;;
43628;SDS011;56545;48.224;11.678;2022-12-29T12:51:55;4.13;;;1.83;;
43628;SDS011;56545;48.224;11.678;2022-12-29T12:54:49;3.85;;;1.55;;
43628;SDS011;56545;48.224;11.678;2022-12-29T13:00:17;3.70;;;1.50;;
43628;SDS011;56545;48.224;11.678;2022-12-29T13:02:57;2.58;;;1.10;;
43628;SDS011;56545;48.224;11.678;2022-12-29T13:17:01;2.78;;;1.30;;
43628;SDS011;56545;48.224;11.678;2022-12-29T13:19:34;3.63;;;1.40;;
43628;SDS011;56545;48.224;11.678;2022-12-29T13:27:33;7.38;;;1.90;;
43628;SDS011;56545;48.224;11.678;2022-12-29T13:30:13;5.82;;;1.60;;
43628;SDS011;56545;48.224;11.678;2022-12-29T13:32:48;5.50;;;2.03;;
43628;SDS011;56545;48.224;11.678;2022-12-29T13:37:53;3.92;;;1.38;;
43628;SDS011;56545;48.224;11.678;2022-12-29T13:40:25;5.18;;;2.20;;
43628;SDS011;56545;48.224;11.678;2022-12-29T13:42:55;8.38;;;3.35;;
43628;SDS011;56545;48.224;11.678;2022-12-29T13:45:22;7.40;;;2.72;;
43628;SDS011;56545;48.224;11.678;2022-12-29T13:50:25;6.28;;;2.00;;
43628;SDS011;56545;48.224;11.678;2022-12-29T13:55:51;8.57;;;3.55;;
43628;SDS011;56545;48.224;11.678;2022-12-29T14:01:27;10.50;;;4.00;;
43628;SDS011;56545;48.224;11.678;2022-12-29T14:04:12;8.52;;;3.20;;
43628;SDS011;56545;48.224;11.678;2022-12-29T14:06:45;10.32;;;3.30;;
43628;SDS011;56545;48.224;11.678;2022-12-29T14:12:19;10.80;;;4.68;;
43628;SDS011;56545;48.224;11.678;2022-12-29T14:14:52;9.05;;;3.83;;
43628;SDS011;56545;48.224;11.678;2022-12-29T14:17:19;9.35;;;3.30;;
43628;SDS011;56545;48.224;11.678;2022-12-29T14:19:45;8.98;;;4.05;;
43628;SDS011;56545;48.224;11.678;2022-12-29T14:22:22;12.57;;;4.22;;
43628;SDS011;56545;48.224;11.678;2022-12-29T14:24:49;9.23;;;4.10;;
43628;SDS011;56545;48.224;11.678;2022-12-29T14:29:42;11.57;;;5.93;;
43628;SDS011;56545;48.224;11.678;2022-12-29T14:34:52;16.38;;;8.68;;
43628;SDS011;56545;48.224;11.678;2022-12-29T14:42:37;6.78;;;3.03;;
43628;SDS011;56545;48.224;11.678;2022-12-29T14:47:34;9.48;;;4.82;;
43628;SDS011;56545;48.224;11.678;2022-12-29T14:58:02;6.75;;;3.03;;
43628;SDS011;56545;48.224;11.678;2022-12-29T15:00:33;4.82;;;1.88;;
43628;SDS011;56545;48.224;11.678;2022-12-29T15:08:58;3.80;;;1.50;;
43628;SDS011;56545;48.224;11.678;2022-12-29T15:17:01;4.63;;;1.35;;
43628;SDS011;56545;48.224;11.678;2022-12-29T15:19:34;5.20;;;1.55;;
43628;SDS011;56545;48.224;11.678;2022-12-29T15:22:01;5.63;;;1.70;;
43628;SDS011;56545;48.224;11.678;2022-12-29T15:24:27;4.97;;;1.77;;
43628;SDS011;56545;48.224;11.678;2022-12-29T15:26:54;4.95;;;1.80;;
43628;SDS011;56545;48.224;11.678;2022-12-29T15:29:36;4.65;;;1.80;;
43628;SDS011;56545;48.224;11.678;2022-12-29T15:32:17;3.60;;;1.55;;
43628;SDS011;56545;48.224;11.678;2022-12-29T15:34:46;4.57;;;2.25;;
43628;SDS011;56545;48.224;11.678;2022-12-29T15:37:21;5.97;;;2.90;;
43628;SDS011;56545;48.224;11.678;2022-12-29T15:39:49;6.32;;;2.70;;
43628;SDS011;56545;48.224;11.678;2022-12-29T15:45:02;7.15;;;3.08;;
43628;SDS011;56545;48.224;11.678;2022-12-29T15:47:34;6.22;;;3.08;;
43628;SDS011;56545;48.224;11.678;2022-12-29T15:50:08;7.40;;;3.65;;
43628;SDS011;56545;48.224;11.678;2022-12-29T15:52:42;8.75;;;3.58;;
43628;SDS011;56545;48.224;11.678;2022-12-29T15:55:17;7.25;;;3.70;;
43628;SDS011;56545;48.224;11.678;2022-12-29T15:57:45;5.88;;;2.90;;
43628;SDS011;56545;48.224;11.678;2022-12-29T16:00:25;5.47;;;2.50;;
43628;SDS011;56545;48.224;11.678;2022-12-29T16:03:02;6.35;;;2.75;;
43628;SDS011;56545;48.224;11.678;2022-12-29T16:05:37;6.45;;;2.40;;
43628;SDS011;56545;48.224;11.678;2022-12-29T16:08:15;6.65;;;2.60;;
43628;SDS011;56545;48.224;11.678;2022-12-29T16:10:51;6.13;;;2.55;;
43628;SDS011;56545;48.224;11.678;2022-12-29T16:13:38;7.53;;;3.00;;
43628;SDS011;56545;48.224;11.678;2022-12-29T16:16:11;6.25;;;2.47;;
43628;SDS011;56545;48.224;11.678;2022-12-29T16:18:40;6.53;;;2.80;;
43628;SDS011;56545;48.224;11.678;2022-12-29T16:21:20;7.22;;;2.78;;
43628;SDS011;56545;48.224;11.678;2022-12-29T16:23:50;7.32;;;2.70;;
43628;SDS011;56545;48.224;11.678;2022-12-29T16:26:18;7.10;;;2.40;;
43628;SDS011;56545;48.224;11.678;2022-12-29T16:29:19;6.90;;;2.30;;
43628;SDS011;56545;48.224;11.678;2022-12-29T16:31:54;5.90;;;2.22;;
43628;SDS011;56545;48.224;11.678;2022-12-29T16:34:32;5.68;;;2.42;;
43628;SDS011;56545;48.224;11.678;2022-12-29T16:39:55;5.32;;;2.10;;
43628;SDS011;56545;48.224;11.678;2022-12-29T16:47:46;3.70;;;1.60;;
43628;SDS011;56545;48.224;11.678;2022-12-29T16:50:16;4.93;;;1.67;;
43628;SDS011;56545;48.224;11.678;2022-12-29T16:52:48;4.22;;;1.75;;
43628;SDS011;56545;48.224;11.678;2022-12-29T16:55:15;5.28;;;1.92;;
43628;SDS011;56545;48.224;11.678;2022-12-29T16:57:42;5.78;;;1.92;;
43628;SDS011;56545;48.224;11.678;2022-12-29T17:02:46;3.10;;;1.63;;
43628;SDS011;56545;48.224;11.678;2022-12-29T17:05:14;4.93;;;1.95;;
43628;SDS011;56545;48.224;11.678;2022-12-29T17:07:41;8.80;;;3.67;;
43628;SDS011;56545;48.224;11.678;2022-12-29T17:10:08;19.95;;;12.57;;
43628;SDS011;56545;48.224;11.678;2022-12-29T17:12:34;16.30;;;9.00;;
43628;SDS011;56545;48.224;11.678;2022-12-29T17:15:03;6.93;;;3.28;;